createdAt,value
2023-04-11T00:02:04.580Z,97577.03
2023-04-11T00:04:31.013Z,97549.31
2023-04-11T00:06:57.386Z,97553.06
2023-04-11T00:09:23.723Z,97575.16
2023-04-11T00:11:50.071Z,97572.75
2023-04-11T00:14:17.540Z,97572.75
2023-04-11T00:16:43.971Z,97585.25
2023-04-11T00:19:10.373Z,97580.50
2023-04-11T00:21:39.854Z,97605.53
2023-04-11T00:24:08.983Z,97621.00
2023-04-11T00:26:35.406Z,97620.22
2023-04-11T00:29:01.749Z,97614.88
2023-04-11T00:31:28.185Z,97614.63
2023-04-11T00:33:54.507Z,97631.41
2023-04-11T00:36:20.945Z,97620.25
2023-04-11T00:38:47.399Z,97644.50
2023-04-11T00:41:13.741Z,97645.56
2023-04-11T00:43:40.064Z,97668.47
2023-04-11T00:46:06.439Z,97662.59
2023-04-11T00:48:32.828Z,97662.88
2023-04-11T00:50:59.872Z,97659.69
2023-04-11T00:53:26.204Z,97654.38
2023-04-11T00:55:52.539Z,97667.16
2023-04-11T00:58:18.854Z,97656.25
2023-04-11T01:00:49.453Z,97652.78
2023-04-11T01:03:15.903Z,97650.13
2023-04-11T01:05:42.293Z,97640.56
2023-04-11T01:08:08.603Z,97643.22
2023-04-11T01:10:34.923Z,97632.84
2023-04-11T01:13:01.276Z,97627.00
2023-04-11T01:15:27.696Z,97631.22
2023-04-11T01:17:55.368Z,97633.09
2023-04-11T01:20:22.114Z,97628.06
2023-04-11T01:22:49.427Z,97623.03
2023-04-11T01:25:15.979Z,97620.63
2023-04-11T01:27:42.737Z,97632.06
2023-04-11T01:30:09.334Z,97624.34
2023-04-11T01:32:35.689Z,97636.88
2023-04-11T01:35:02.044Z,97616.66
2023-04-11T01:37:28.355Z,97620.66
2023-04-11T01:39:54.676Z,97615.34
2023-04-11T01:42:21.110Z,97603.09
2023-04-11T01:44:47.844Z,97594.31
2023-04-11T01:47:14.222Z,97598.84
2023-04-11T01:49:40.689Z,97592.19
2023-04-11T01:52:07.040Z,97579.69
2023-04-11T01:54:33.351Z,97581.56
2023-04-11T01:56:59.680Z,97586.09
2023-04-11T01:59:25.996Z,97583.44
2023-04-11T02:01:52.397Z,97581.31
2023-04-11T02:04:18.997Z,97589.75
2023-04-11T02:06:45.567Z,97584.84
2023-04-11T02:09:11.927Z,97588.53
2023-04-11T02:11:38.255Z,97574.09
2023-04-11T02:14:06.214Z,97583.38
2023-04-11T02:16:33.642Z,97582.00
2023-04-11T02:19:00.242Z,97573.50
2023-04-11T02:21:26.756Z,97571.34
2023-04-11T02:23:53.085Z,97571.06
2023-04-11T02:26:19.487Z,97559.09
2023-04-11T02:28:45.842Z,97549.53
2023-04-11T02:31:12.223Z,97548.19
2023-04-11T02:33:38.601Z,97549.75
2023-04-11T02:36:05.051Z,97539.91
2023-04-11T02:38:31.455Z,97538.78
2023-04-11T02:40:59.410Z,97544.97
2023-04-11T02:43:25.726Z,97540.91
2023-04-11T02:45:56.436Z,97548.91
2023-04-11T02:48:28.846Z,97550.97
2023-04-11T02:50:55.646Z,97560.06
2023-04-11T02:53:21.986Z,97562.72
2023-04-11T02:55:48.368Z,97564.88
2023-04-11T02:58:17.761Z,97565.44
2023-04-11T03:00:44.289Z,97569.97
2023-04-11T03:03:11.986Z,97577.97
2023-04-11T03:05:38.469Z,97578.47
2023-04-11T03:08:04.789Z,97567.81
2023-04-11T03:10:31.135Z,97577.13
2023-04-11T03:12:57.452Z,97576.28
2023-04-11T03:15:23.797Z,97582.66
2023-04-11T03:17:50.263Z,97577.25
2023-04-11T03:20:19.594Z,97575.94
2023-04-11T03:22:46.550Z,97569.56
2023-04-11T03:25:12.895Z,97575.50
2023-04-11T03:27:39.259Z,97561.44
2023-04-11T03:30:05.809Z,97563.28
2023-04-11T03:32:32.188Z,97571.28
2023-04-11T03:35:00.153Z,97576.41
2023-04-11T03:37:26.479Z,97575.88
2023-04-11T03:39:52.946Z,97568.66
2023-04-11T03:42:19.300Z,97569.44
2023-04-11T03:44:45.636Z,97567.69
2023-04-11T03:47:11.986Z,97576.97
2023-04-11T03:49:38.439Z,97587.88
2023-04-11T03:52:05.506Z,97607.81
2023-04-11T03:54:32.313Z,97615.31
2023-04-11T03:56:58.644Z,97618.47
2023-04-11T03:59:25.016Z,97638.22
2023-04-11T04:01:51.393Z,97633.19
2023-04-11T04:04:17.875Z,97618.81
2023-04-11T04:06:45.836Z,97616.94
2023-04-11T04:09:12.160Z,97621.00
2023-04-11T04:11:38.493Z,97611.38
2023-04-11T04:14:04.830Z,97610.09
2023-04-11T04:16:31.184Z,97603.97
2023-04-11T04:18:57.785Z,97601.00
2023-04-11T04:21:26.906Z,97600.66
2023-04-11T04:23:54.218Z,97604.34
2023-04-11T04:26:24.797Z,97604.88
2023-04-11T04:28:51.160Z,97602.72
2023-04-11T04:31:22.294Z,97604.09
2023-04-11T04:33:49.502Z,97612.09
2023-04-11T04:36:17.735Z,97607.31
2023-04-11T04:38:44.253Z,97609.75
2023-04-11T04:41:16.208Z,97610.34
2023-04-11T04:43:42.595Z,97614.03
2023-04-11T04:46:09.184Z,97611.97
2023-04-11T04:48:35.540Z,97616.44
2023-04-11T04:51:02.998Z,97608.34
2023-04-11T04:53:29.327Z,97606.91
2023-04-11T04:55:55.932Z,97609.78
2023-04-11T04:58:22.251Z,97611.38
2023-04-11T05:00:49.506Z,97605.22
2023-04-11T05:03:17.277Z,97608.72
2023-04-11T05:05:43.757Z,97608.19
2023-04-11T05:08:10.088Z,97614.59
2023-04-11T05:10:36.404Z,97610.88
2023-04-11T05:13:02.784Z,97609.31
2023-04-11T05:15:29.117Z,97609.56
2023-04-11T05:17:55.579Z,97603.25
2023-04-11T05:20:21.951Z,97598.97
2023-04-11T05:22:49.697Z,97598.22
2023-04-11T05:25:16.111Z,97606.16
2023-04-11T05:27:42.470Z,97622.97
2023-04-11T05:30:08.946Z,97611.44
2023-04-11T05:32:35.363Z,97603.38
2023-04-11T05:35:01.704Z,97606.06
2023-04-11T05:37:31.149Z,97610.00
2023-04-11T05:39:57.586Z,97618.00
2023-04-11T05:42:23.924Z,97621.75
2023-04-11T05:44:50.802Z,97619.66
2023-04-11T05:47:17.143Z,97635.66
2023-04-11T05:49:43.478Z,97634.34
2023-04-11T05:52:09.818Z,97633.00
2023-04-11T05:54:36.399Z,97641.31
2023-04-11T05:57:03.175Z,97645.56
2023-04-11T05:59:30.604Z,97650.31
2023-04-11T06:01:57.082Z,97646.22
2023-04-11T06:04:23.633Z,97644.56
2023-04-11T06:06:51.603Z,97638.97
2023-04-11T06:09:18.049Z,97636.50
2023-04-11T06:11:44.648Z,97656.56
2023-04-11T06:14:11.026Z,97661.88
2023-04-11T06:16:38.728Z,97656.81
2023-04-11T06:19:05.101Z,97659.00
2023-04-11T06:21:34.261Z,97672.63
2023-04-11T06:24:09.954Z,97685.16
2023-04-11T06:26:36.312Z,97685.97
2023-04-11T06:29:05.670Z,97693.22
2023-04-11T06:31:32.362Z,97702.56
2023-04-11T06:33:59.098Z,97687.91
2023-04-11T06:36:25.985Z,97691.91
2023-04-11T06:38:52.306Z,97710.34
2023-04-11T06:41:18.663Z,97705.53
2023-04-11T06:43:44.975Z,97694.81
2023-04-11T06:46:11.953Z,97702.75
2023-04-11T06:48:38.340Z,97697.41
2023-04-11T06:51:04.672Z,97697.41
2023-04-11T06:53:31.069Z,97704.03
2023-04-11T06:55:57.897Z,97702.47
2023-04-11T06:58:24.233Z,97707.56
2023-04-11T07:00:51.442Z,97708.88
2023-04-11T07:03:18.238Z,97708.94
2023-04-11T07:05:44.672Z,97725.81
2023-04-11T07:08:11.073Z,97732.75
2023-04-11T07:10:37.401Z,97718.41
2023-04-11T07:13:03.756Z,97726.06
2023-04-11T07:15:30.069Z,97733.81
2023-04-11T07:17:56.429Z,97741.81
2023-04-11T07:20:22.769Z,97742.69
2023-04-11T07:22:49.138Z,97744.28
2023-04-11T07:25:15.487Z,97748.53
2023-04-11T07:27:43.550Z,97753.13
2023-04-11T07:30:10.037Z,97751.56
2023-04-11T07:32:36.620Z,97759.63
2023-04-11T07:35:03.007Z,97757.50
2023-04-11T07:37:30.226Z,97751.63
2023-04-11T07:39:56.548Z,97748.16
2023-04-11T07:42:22.897Z,97758.63
2023-04-11T07:44:49.241Z,97760.78
2023-04-11T07:47:15.826Z,97778.38
2023-04-11T07:49:42.163Z,97773.03
2023-04-11T07:52:08.500Z,97759.53
2023-04-11T07:54:34.861Z,97755.25
2023-04-11T07:57:02.059Z,97759.78
2023-04-11T07:59:28.442Z,97764.81
2023-04-11T08:01:59.120Z,97765.06
2023-04-11T08:04:25.803Z,97772.00
2023-04-11T08:06:52.416Z,97765.06
2023-04-11T08:09:18.766Z,97782.44
2023-04-11T08:11:45.205Z,97780.03
2023-04-11T08:14:11.522Z,97773.91
2023-04-11T08:16:37.944Z,97772.03
2023-04-11T08:19:04.432Z,97788.28
2023-04-11T08:21:31.243Z,97775.72
2023-04-11T08:23:58.040Z,97781.59
2023-04-11T08:26:24.656Z,97776.50
2023-04-11T08:28:51.133Z,97778.09
2023-04-11T08:31:17.822Z,97782.28
2023-04-11T08:33:44.248Z,97771.88
2023-04-11T08:36:11.047Z,97786.28
2023-04-11T08:38:37.935Z,97776.34
2023-04-11T08:41:04.309Z,97789.69
2023-04-11T08:43:33.387Z,97785.44
2023-04-11T08:46:01.142Z,97800.91
2023-04-11T08:48:28.338Z,97796.94
2023-04-11T08:50:54.668Z,97798.28
2023-04-11T08:53:22.171Z,97802.28
2023-04-11T08:55:48.518Z,97797.94
2023-04-11T08:58:14.833Z,97796.25
2023-04-11T09:00:41.140Z,97802.09
2023-04-11T09:03:08.115Z,97794.28
2023-04-11T09:05:35.528Z,97803.28
2023-04-11T09:08:03.285Z,97801.66
2023-04-11T09:10:29.913Z,97805.91
2023-04-11T09:12:56.396Z,97809.34
2023-04-11T09:15:27.933Z,97812.56
2023-04-11T09:17:54.509Z,97814.22
2023-04-11T09:20:21.432Z,97807.88
2023-04-11T09:22:50.660Z,97807.88
2023-04-11T09:25:17.684Z,97797.16
2023-04-11T09:27:44.003Z,97801.66
2023-04-11T09:30:22.693Z,97810.94
2023-04-11T09:32:49.241Z,97812.47
2023-04-11T09:35:16.236Z,97810.63
2023-04-11T09:37:55.682Z,97809.31
2023-04-11T09:40:24.527Z,97818.69
2023-04-11T09:42:58.231Z,97825.56
2023-04-11T09:45:24.956Z,97824.91
2023-04-11T09:47:51.954Z,97815.22
2023-04-11T09:50:18.510Z,97823.47
2023-04-11T09:52:45.045Z,97830.13
2023-04-11T09:55:15.068Z,97819.47
2023-04-11T09:57:45.544Z,97835.97
2023-04-11T10:00:16.960Z,97834.91
2023-04-11T10:02:44.525Z,97820.19
2023-04-11T10:05:11.204Z,97829.19
2023-04-11T10:07:44.020Z,97830.22
2023-04-11T10:10:10.687Z,97833.66
2023-04-11T10:12:37.368Z,97837.34
2023-04-11T10:15:08.270Z,97833.81
2023-04-11T10:17:34.650Z,97827.63
2023-04-11T10:20:01.319Z,97825.97
2023-04-11T10:22:46.375Z,97836.38
2023-04-11T10:25:23.593Z,97832.13
2023-04-11T10:28:03.860Z,97827.63
2023-04-11T10:30:39.585Z,97844.22
2023-04-11T10:33:09.455Z,97843.97
2023-04-11T10:35:35.877Z,97843.19
2023-04-11T10:38:02.205Z,97846.94
2023-04-11T10:40:28.610Z,97840.00
2023-04-11T10:42:55.249Z,97845.66
2023-04-11T10:45:24.706Z,97844.56
2023-04-11T10:47:57.238Z,97847.50
2023-04-11T10:50:23.619Z,97848.03
2023-04-11T10:52:49.967Z,97849.91
2023-04-11T10:55:19.691Z,97851.50
2023-04-11T10:58:05.806Z,97844.56
2023-04-11T11:00:53.996Z,97840.25
2023-04-11T11:03:21.218Z,97854.72
2023-04-11T11:05:47.927Z,97850.69
2023-04-11T11:08:14.236Z,97859.75
2023-04-11T11:10:41.712Z,97872.28
2023-04-11T11:13:08.091Z,97865.34
2023-04-11T11:15:37.529Z,97857.31
2023-04-11T11:18:04.867Z,97860.19
2023-04-11T11:20:31.318Z,97867.09
2023-04-11T11:22:58.219Z,97848.41
2023-04-11T11:25:25.496Z,97859.69
2023-04-11T11:27:58.881Z,97872.50
2023-04-11T11:30:25.195Z,97872.84
2023-04-11T11:32:51.660Z,97872.38
2023-04-11T11:35:18.381Z,97876.75
2023-04-11T11:37:44.748Z,97879.13
2023-04-11T11:40:14.050Z,97871.09
2023-04-11T11:42:40.512Z,97869.28
2023-04-11T11:45:20.363Z,97881.66
2023-04-11T11:47:47.055Z,97886.75
2023-04-11T11:50:29.440Z,97879.59
2023-04-11T11:52:56.581Z,97890.59
2023-04-11T11:57:49.560Z,97879.16
2023-04-11T12:00:16.082Z,97876.00
2023-04-11T12:02:43.084Z,97881.09
2023-04-11T12:05:10.608Z,97884.84
2023-04-11T12:07:37.241Z,97883.50
2023-04-11T12:10:06.345Z,97885.38
2023-04-11T12:12:36.624Z,97885.91
2023-04-11T12:15:12.649Z,97871.22
2023-04-11T12:17:39.041Z,97874.47
2023-04-11T12:20:07.823Z,97870.72
2023-04-11T12:22:34.403Z,97869.63
2023-04-11T12:25:18.895Z,97872.06
2023-04-11T12:27:47.125Z,97861.59
2023-04-11T12:30:16.309Z,97861.84
2023-04-11T12:32:42.807Z,97879.91
2023-04-11T12:35:09.224Z,97862.31
2023-04-11T12:37:35.841Z,97881.22
2023-04-11T12:40:06.782Z,97863.31
2023-04-11T12:42:36.512Z,97869.00
2023-04-11T12:45:06.480Z,97868.22
2023-04-11T12:47:33.018Z,97875.41
2023-04-11T12:49:59.339Z,97880.19
2023-04-11T12:52:25.663Z,97862.91
2023-04-11T12:54:52.016Z,97896.72
2023-04-11T12:57:18.324Z,97879.06
2023-04-11T12:59:44.660Z,97898.22
2023-04-11T13:02:11.219Z,97889.13
2023-04-11T13:04:37.815Z,97891.28
2023-04-11T13:07:04.644Z,97896.13
2023-04-11T13:09:33.851Z,97901.22
2023-04-11T13:12:01.751Z,97914.84
2023-04-11T13:14:28.148Z,97914.63
2023-04-11T13:16:54.591Z,97918.91
2023-04-11T13:19:21.144Z,97915.22
2023-04-11T13:21:47.502Z,97909.06
2023-04-11T13:24:13.808Z,97899.19
2023-04-11T13:26:40.143Z,97903.19
2023-04-11T13:29:06.772Z,97892.50
2023-04-11T13:31:33.277Z,97890.91
2023-04-11T13:33:59.653Z,97900.00
2023-04-11T13:36:28.966Z,97899.19
2023-04-11T13:38:55.850Z,97902.16
2023-04-11T13:41:23.078Z,97896.81
2023-04-11T13:43:49.919Z,97902.38
2023-04-11T13:46:16.873Z,97908.53
2023-04-11T13:48:43.629Z,97906.41
2023-04-11T13:51:09.978Z,97918.97
2023-04-11T13:53:36.295Z,97919.22
2023-04-11T13:56:05.734Z,97930.19
2023-04-11T13:58:32.185Z,97925.09
2023-04-11T14:00:58.559Z,97921.88
2023-04-11T14:03:25.033Z,97928.31
2023-04-11T14:05:51.406Z,97927.22
2023-04-11T14:08:17.721Z,97936.56
2023-04-11T14:10:44.204Z,97932.53
2023-04-11T14:13:11.589Z,97928.25
2023-04-11T14:15:38.101Z,97930.41
2023-04-11T14:18:04.463Z,97925.97
2023-04-11T14:20:30.902Z,97917.16
2023-04-11T14:22:57.280Z,97915.03
2023-04-11T14:25:23.778Z,97908.13
2023-04-11T14:27:50.676Z,97912.91
2023-04-11T14:30:17.058Z,97916.66
2023-04-11T14:32:43.395Z,97935.34
2023-04-11T14:35:09.952Z,97936.13
2023-04-11T14:37:36.708Z,97944.38
2023-04-11T14:40:04.992Z,97942.25
2023-04-11T14:42:31.659Z,97931.84
2023-04-11T14:44:58.085Z,97935.59
2023-04-11T14:47:24.417Z,97938.53
2023-04-11T14:49:50.779Z,97948.13
2023-04-11T14:52:17.198Z,97942.25
2023-04-11T14:54:43.529Z,97941.22
2023-04-11T14:57:10.286Z,97940.66
2023-04-11T14:59:36.650Z,97946.81
2023-04-11T15:02:03.229Z,97940.97
2023-04-11T15:04:29.725Z,97941.75
2023-04-11T15:06:56.542Z,97947.38
2023-04-11T15:09:22.872Z,97950.84
2023-04-11T15:11:49.229Z,97951.63
2023-04-11T15:14:15.692Z,97959.63
2023-04-11T15:16:42.067Z,97970.03
2023-04-11T15:19:09.544Z,97968.69
2023-04-11T15:21:35.929Z,97960.38
2023-04-11T15:24:07.146Z,97954.78
2023-04-11T15:26:33.715Z,97964.13
2023-04-11T15:29:00.365Z,97972.16
2023-04-11T15:31:26.945Z,97961.75
2023-04-11T15:33:54.370Z,97975.91
2023-04-11T15:36:22.332Z,97968.94
2023-04-11T15:38:49.018Z,97965.75
2023-04-11T15:41:15.385Z,97965.75
2023-04-11T15:43:43.055Z,97964.19
2023-04-11T15:46:10.262Z,97966.03
2023-04-11T15:48:36.633Z,97968.97
2023-04-11T15:51:10.018Z,97964.97
2023-04-11T15:53:36.392Z,97969.75
2023-04-11T15:56:06.510Z,97970.31
2023-04-11T15:58:33.872Z,97979.38
2023-04-11T16:01:01.641Z,97974.06
2023-04-11T16:03:31.725Z,97977.50
2023-04-11T16:05:58.532Z,97976.72
2023-04-11T16:08:26.127Z,97970.59
2023-04-11T16:10:52.450Z,97970.59
2023-04-11T16:13:18.847Z,97968.19
2023-04-11T16:15:45.341Z,97963.91
2023-04-11T16:18:11.818Z,97971.13
2023-04-11T16:20:39.054Z,97965.28
2023-04-11T16:23:05.659Z,97967.41
2023-04-11T16:25:32.074Z,97975.41
2023-04-11T16:27:58.405Z,97975.41
2023-04-11T16:30:26.248Z,97973.03
2023-04-11T16:32:52.647Z,97972.25
2023-04-11T16:35:19.089Z,97979.69
2023-04-11T16:37:45.417Z,97970.09
2023-04-11T16:40:12.196Z,97968.16
2023-04-11T16:42:38.796Z,97967.22
2023-04-11T16:45:05.377Z,97965.50
2023-04-11T16:47:31.726Z,97966.75
2023-04-11T16:49:58.072Z,97973.38
2023-04-11T16:52:24.408Z,97964.78
2023-04-11T16:54:50.987Z,97962.34
2023-04-11T16:57:18.286Z,97964.75
2023-04-11T16:59:44.612Z,97957.84
2023-04-11T17:02:11.238Z,97971.16
2023-04-11T17:04:38.543Z,97971.19
2023-04-11T17:07:04.972Z,97968.81
2023-04-11T17:09:31.520Z,97976.03
2023-04-11T17:11:57.904Z,97972.28
2023-04-11T17:14:24.580Z,97973.06
2023-04-11T17:16:51.713Z,97974.41
2023-04-11T17:19:18.081Z,97970.91
2023-04-11T17:21:44.412Z,97974.88
2023-04-11T17:24:10.757Z,97976.50
2023-04-11T17:26:37.140Z,97975.13
2023-04-11T17:29:03.567Z,97979.69
2023-04-11T17:31:29.984Z,97971.72
2023-04-11T17:33:56.569Z,97972.81
2023-04-11T17:36:23.309Z,97972.00
2023-04-11T17:38:51.372Z,97981.34
2023-04-11T17:41:17.746Z,97969.38
2023-04-11T17:43:44.065Z,97972.03
2023-04-11T17:46:10.742Z,97974.50
2023-04-11T17:48:37.133Z,97981.16
2023-04-11T17:51:04.133Z,97981.47
2023-04-11T17:53:30.853Z,97981.41
2023-04-11T17:55:57.504Z,97984.28
2023-04-11T17:58:23.868Z,97975.09
2023-04-11T18:00:56.740Z,97982.94
2023-04-11T18:03:25.141Z,97981.59
2023-04-11T18:05:52.421Z,97988.28
2023-04-11T18:08:18.764Z,97992.00
2023-04-11T18:10:45.180Z,97992.78
2023-04-11T18:13:11.526Z,97991.50
2023-04-11T18:15:37.961Z,97991.19
2023-04-11T18:18:07.963Z,97993.88
2023-04-11T18:20:34.408Z,97993.09
2023-04-11T18:23:01.645Z,97999.28
2023-04-11T18:25:28.519Z,98001.66
2023-04-11T18:27:54.959Z,97997.13
2023-04-11T18:30:21.286Z,97991.78
2023-04-11T18:32:50.298Z,97998.47
2023-04-11T18:35:17.286Z,97995.31
2023-04-11T18:37:43.980Z,97999.31
2023-04-11T18:40:12.563Z,98000.41
2023-04-11T18:42:39.421Z,97997.50
2023-04-11T18:45:06.098Z,98004.47
2023-04-11T18:47:32.528Z,98004.50
2023-04-11T18:49:58.891Z,98012.53
2023-04-11T18:52:27.028Z,98014.94
2023-04-11T18:54:54.800Z,98016.59
2023-04-11T18:57:21.143Z,98015.28
2023-04-11T18:59:50.185Z,98015.53
2023-04-11T19:02:17.377Z,98011.69
2023-04-11T19:04:47.346Z,98013.16
2023-04-11T19:07:16.895Z,98013.06
2023-04-11T19:09:43.358Z,98012.47
2023-04-11T19:12:09.805Z,98014.88
2023-04-11T19:14:36.115Z,98010.09
2023-04-11T19:17:02.806Z,98010.59
2023-04-11T19:19:29.115Z,98009.81
2023-04-11T19:21:55.907Z,98006.88
2023-04-11T19:24:22.266Z,98005.53
2023-04-11T19:26:48.595Z,98004.47
2023-04-11T19:29:14.923Z,98002.06
2023-04-11T19:31:41.440Z,97994.34
2023-04-11T19:34:07.805Z,98000.75
2023-04-11T19:36:34.376Z,97996.50
2023-04-11T19:39:00.853Z,97993.31
2023-04-11T19:41:27.211Z,97997.69
2023-04-11T19:43:53.531Z,97994.47
2023-04-11T19:46:20.011Z,97987.59
2023-04-11T19:48:46.913Z,97995.09
2023-04-11T19:51:13.879Z,97993.00
2023-04-11T19:53:40.299Z,97985.81
2023-04-11T19:56:07.493Z,97994.13
2023-04-11T19:58:35.108Z,97994.66
2023-04-11T20:01:01.878Z,97998.41
2023-04-11T20:03:28.434Z,97990.41
2023-04-11T20:05:54.924Z,97988.00
2023-04-11T20:08:21.338Z,97985.13
2023-04-11T20:10:47.717Z,97978.47
2023-04-11T20:13:17.060Z,97971.81
2023-04-11T20:15:43.370Z,97975.84
2023-04-11T20:18:10.362Z,97970.00
2023-04-11T20:20:38.364Z,97968.47
2023-04-11T20:23:05.149Z,97962.91
2023-04-11T20:25:31.797Z,97957.91
2023-04-11T20:27:58.278Z,97964.31
2023-04-11T20:30:24.731Z,97952.31
2023-04-11T20:32:51.241Z,97950.22
2023-04-11T20:35:19.211Z,97948.59
2023-04-11T20:37:47.002Z,97944.91
2023-04-11T20:40:14.262Z,97952.38
2023-04-11T20:42:42.527Z,97946.81
2023-04-11T20:45:10.293Z,97945.50
2023-04-11T20:47:37.674Z,97940.97
2023-04-11T20:50:07.315Z,97937.50
2023-04-11T20:52:33.762Z,97943.88
2023-04-11T20:55:00.177Z,97943.88
2023-04-11T20:57:26.726Z,97940.19
2023-04-11T20:59:54.457Z,97940.50
2023-04-11T21:02:21.218Z,97939.41
2023-04-11T21:04:51.408Z,97932.50
2023-04-11T21:07:18.056Z,97930.09
2023-04-11T21:09:44.991Z,97933.06
2023-04-11T21:12:11.505Z,97929.06
2023-04-11T21:14:37.815Z,97921.06
2023-04-11T21:17:07.256Z,97918.16
2023-04-11T21:19:36.628Z,97919.22
2023-04-11T21:22:03.225Z,97913.09
2023-04-11T21:24:32.834Z,97913.63
2023-04-11T21:26:59.361Z,97913.13
2023-04-11T21:29:25.672Z,97912.88
2023-04-11T21:31:52.012Z,97914.47
2023-04-11T21:34:18.377Z,97912.34
2023-04-11T21:36:44.705Z,97907.78
2023-04-11T21:39:11.043Z,97909.94
2023-04-11T21:41:37.368Z,97908.34
2023-04-11T21:44:03.685Z,97898.00
2023-04-11T21:46:30.170Z,97891.59
2023-04-11T21:48:56.509Z,97891.09
2023-04-11T21:51:22.821Z,97887.38
2023-04-11T21:53:49.161Z,97894.59
2023-04-11T21:56:15.937Z,97884.41
2023-04-11T21:58:42.261Z,97880.84
2023-04-11T22:01:11.784Z,97878.34
2023-04-11T22:03:42.174Z,97870.56
2023-04-11T22:06:09.102Z,97868.13
2023-04-11T22:08:39.049Z,97869.38
2023-04-11T22:11:07.636Z,97870.81
2023-04-11T22:13:35.120Z,97868.00
2023-04-11T22:16:05.622Z,97870.31
2023-04-11T22:18:33.514Z,97859.22
2023-04-11T22:21:03.083Z,97859.00
2023-04-11T22:23:29.610Z,97864.44
2023-04-11T22:25:59.277Z,97856.44
2023-04-11T22:28:26.204Z,97848.41
2023-04-11T22:30:52.695Z,97852.16
2023-04-11T22:33:19.057Z,97842.84
2023-04-11T22:35:47.629Z,97851.13
2023-04-11T22:38:15.806Z,97845.00
2023-04-11T22:40:42.521Z,97839.88
2023-04-11T22:43:09.851Z,97837.81
2023-04-11T22:45:36.208Z,97830.41
2023-04-11T22:48:04.166Z,97829.09
2023-04-11T22:50:32.105Z,97823.47
2023-04-11T22:53:01.954Z,97827.56
2023-04-11T22:55:35.163Z,97817.19
2023-04-11T22:58:01.866Z,97814.28
2023-04-11T23:00:28.939Z,97811.91
2023-04-11T23:02:55.453Z,97801.47
2023-04-11T23:05:22.123Z,97806.31
2023-04-11T23:07:48.447Z,97799.91
2023-04-11T23:10:15.390Z,97809.56
2023-04-11T23:12:41.884Z,97801.53
2023-04-11T23:15:09.405Z,97790.34
2023-04-11T23:17:37.678Z,97787.16
2023-04-11T23:20:12.628Z,97783.75
2023-04-11T23:22:41.117Z,97791.25
2023-04-11T23:25:08.088Z,97784.03
2023-04-11T23:27:34.423Z,97788.63
2023-04-11T23:30:00.828Z,97773.16
2023-04-11T23:32:27.238Z,97771.59
2023-04-11T23:34:53.943Z,97775.31
2023-04-11T23:37:20.255Z,97767.59
2023-04-11T23:39:47.457Z,97770.56
2023-04-11T23:42:13.776Z,97760.44
2023-04-11T23:44:40.117Z,97763.41
2023-04-11T23:47:07.093Z,97757.88
2023-04-11T23:49:33.436Z,97759.53
2023-04-11T23:51:59.759Z,97752.84
2023-04-11T23:54:30.136Z,97747.00
2023-04-11T23:56:59.591Z,97749.25
2023-04-11T23:59:25.906Z,97740.22
